Flight Track Log - Related Links

Times and Time Zones

All times are in EDT time to prevent confusion due to time zone crossing. See the N523JM flight status page for this flight to view local times or setup timezone preferences in your user account.

Time Position Orientation Groundspeed Altitude Reporting Facility
EDT Latitude Longitude Course Direction KTS MPH feet Rate Location/Type
Thu 07:16:15 AM 40.0756 -83.0886 273° West 162 186 1,300  Level Indianapolis Center
Thu 07:16:27 AM 40.0761 -83.1022 273° West 168 193 2,000 2,143 Climbing Indianapolis Center
Thu 07:17:11 AM 40.0719 -83.1417 262° West 212 244 3,300 3,000 Climbing Indianapolis Center
Thu 07:18:11 AM 40.0656 -83.2497 266° West 243 280 7,200 3,590 Climbing Indianapolis Center
Thu 07:19:13 AM 40.0672 -83.3444 271° West 261 300 10,600 3,317 Climbing Indianapolis Center
Thu 07:20:14 AM 40.0692 -83.4375 272° West 261 300 14,000 2,656 Climbing Indianapolis Center
Thu 07:21:15 AM 40.0711 -83.5306 272° West 261 300 16,000 984 Climbing Indianapolis Center
Thu 07:22:16 AM 40.0739 -83.6461 272° West 321 369 16,000  Level Indianapolis Center
Thu 07:23:17 AM 40.0764 -83.7744 271° West 353 406 16,000  Level Indianapolis Center
Thu 07:24:18 AM 40.0789 -83.9067 271° West 365 420 16,000  Level Indianapolis Center
Thu 07:25:19 AM 40.0822 -84.0678 272° West 371 427 16,000  Level Indianapolis Center
Thu 07:26:21 AM 40.0847 -84.2022 271° West 371 427 16,000  Level Indianapolis Center
Thu 07:27:22 AM 40.0864 -84.3369 271° West 373 429 16,000  Level Indianapolis Center
Thu 07:28:23 AM 40.0894 -84.4708 272° West 371 427 16,000  Level Indianapolis Center
Thu 07:29:24 AM 40.0914 -84.6078 271° West 376 433 16,000  Level Indianapolis Center
Thu 07:30:26 AM 40.0917 -84.7428 270° West 374 430 16,000  Level Indianapolis Center
Thu 07:31:27 AM 40.0922 -84.8794 270° West 376 433 16,000 -148 Level Indianapolis Center
Thu 07:32:28 AM 40.0947 -85.0228 271° West 377 434 15,700 -836 Descending Indianapolis Center
Thu 07:33:29 AM 40.0961 -85.1514 271° West 358 412 14,300 -1,415 Descending Indianapolis Center
Thu 07:34:31 AM 40.0706 -85.2569 252° West 309 356 12,800 -1,415 Descending Indianapolis Center
Thu 07:35:32 AM 40.0392 -85.3497 246° West 283 326 11,400 -1,377 Descending Indianapolis Center
Thu 07:36:33 AM 40.0047 -85.4531 247° West 262 302 10,000 -683 Descending Indianapolis Center
Thu 07:37:35 AM 39.9733 -85.5458 246° West 279 321 10,000  Level Indianapolis Center
Thu 07:38:36 AM 39.9422 -85.6364 246° West 273 314 10,000 -341 Level Indianapolis Center
Thu 07:39:38 AM 39.9150 -85.7169 246° West 249 287 9,300 -927 Descending Indianapolis Center
Thu 07:40:39 AM 39.8886 -85.7964 247° West 241 277 8,100 -1,180 Descending Indianapolis Center
Thu 07:41:40 AM 39.8622 -85.8725 246° West 235 270 6,900 -1,220 Descending Indianapolis Center
Thu 07:42:42 AM 39.8364 -85.9492 246° West 233 268 5,600 -1,268 Descending Indianapolis Center
Thu 07:43:43 AM 39.8139 -86.0247 249° West 230 265 4,300 -934 Descending Indianapolis Center
Thu 07:44:44 AM 39.7981 -86.1142 257° West 221 254 3,700 -488 Descending Indianapolis Center
Thu 07:45:46 AM 39.7925 -86.1675 262° West 176 203 3,300 -683 Descending Indianapolis Center
Thu 07:46:47 AM 39.7728 -86.2122 240° Southwest 161 185 2,300 -829 Descending Indianapolis Center
Thu 07:47:49 AM 39.7450 -86.2475 224° Southwest 147 169 1,600 -732 Descending Indianapolis Center
Thu 07:48:50 AM 39.7181 -86.2811 224° Southwest 137 158 800 -787 Descending Indianapolis Center
Thu 07:50:00 AM 39.7167 -86.2833 218° Southwest  Level FlightAware
Thu 07:57:00 AM 39.7173 -86.2947 218° Southwest  Level Estimated

Login

Don't have an account? Register now (free) for customized features, flight alerts, and more!